Time;durP1;ratioP1;P1;durP2;ratioP2;P2;SDS_P1;SDS_P2;PMS_P1;PMS_P2;Temp;Humidity;BMP_temperature;BMP_pressure;BME280_temperature;BME280_humidity;BME280_pressure;Samples;Min_cycle;Max_cycle;Signal;HPM_P1;HPM_P2
2023/09/02 00:02:14;;;;;;;;;;;19.10;51.10;;;18.42;51.97;101315.56;12139741;19;19915;-83
2023/09/02 00:06:16;;;;;;;;;;;19.00;51.00;;;18.36;52.14;101310.72;12142764;19;20263;-83
2023/09/02 00:10:17;;;;;;;;;;;19.00;51.00;;;18.31;52.30;101316.41;12140624;19;19950;-83
2023/09/02 00:14:19;;;;;;;;;;;18.90;51.00;;;18.20;52.09;101315.53;12142761;19;19926;-83
2023/09/02 00:18:21;;;;;;;;;;;18.90;51.00;;;18.18;52.06;101325.41;12140246;19;20018;-83
2023/09/02 00:22:22;;;;;;;;;;;18.80;51.00;;;18.03;52.14;101307.13;12141789;19;19907;-83
2023/09/02 00:26:23;;;;;;;;;;;18.80;50.90;;;17.99;52.01;101318.91;12143542;19;19918;-83
2023/09/02 00:30:25;;;;;;;;;;;18.70;50.90;;;17.86;51.90;101304.94;12136877;19;19922;-83
2023/09/02 00:34:27;;;;;;;;;;;18.60;50.90;;;17.77;51.86;101306.47;12139252;19;20290;-83
2023/09/02 00:38:29;;;;;;;;;;;18.50;50.90;;;17.75;52.20;101316.31;12137682;19;20311;-83
2023/09/02 00:42:31;;;;;;;;;;;18.50;51.00;;;17.70;52.19;101311.34;12136188;19;20013;-83
2023/09/02 00:46:33;;;;;;;;;;;18.50;51.10;;;17.75;51.86;101320.75;12138560;19;20599;-83
2023/09/02 00:50:35;;;;;;;;;;;18.40;51.10;;;17.74;52.13;101324.31;12135144;19;19922;-83
2023/09/02 00:54:37;;;;;;;;;;;18.40;51.10;;;17.66;52.35;101307.28;12138065;19;19922;-83
2023/09/02 00:58:38;;;;;;;;;;;18.30;51.10;;;17.57;52.23;101300.03;12138499;19;20264;-83
2023/09/02 01:02:42;;;;;;;;;;;18.30;51.20;;;17.65;52.42;101326.72;12135077;19;19919;-83
2023/09/02 01:06:44;;;;;;;;;;;18.30;51.20;;;17.60;52.16;101317.44;12138377;19;20291;-83
2023/09/02 01:10:47;;;;;;;;;;;18.30;51.20;;;17.59;52.13;101315.78;12136858;19;19922;-83
2023/09/02 01:14:48;;;;;;;;;;;18.30;51.20;;;17.59;52.27;101321.91;12136556;19;19915;-83
2023/09/02 01:18:50;;;;;;;;;;;18.30;51.20;;;17.58;52.42;101335.22;12136924;19;19915;-83
2023/09/02 01:23:46;;;;;;;;;;;18.20;51.10;;;17.49;52.24;101328.81;12133307;19;20519;-83
2023/09/02 01:28:26;;;;;;;;;;;18.20;51.10;;;17.49;52.46;101339.38;12128901;19;19931;-83
2023/09/02 01:32:38;;;;;;;;;;;18.20;51.10;;;17.39;52.35;101333.97;12141923;19;20284;-83
2023/09/02 01:36:46;;;;;;;;;;;18.10;51.10;;;17.41;52.48;101349.66;12135094;19;20260;-83
2023/09/02 01:40:51;;;;;;;;;;;18.10;51.00;;;17.32;52.35;101340.63;12136417;19;19923;-83
2023/09/02 01:44:52;;;;;;;;;;;18.00;51.40;;;17.25;52.54;101342.03;12134446;19;20210;-83
2023/09/02 01:48:54;;;;;;;;;;;18.00;51.00;;;17.24;52.33;101349.13;12133480;19;19942;-83
2023/09/02 01:52:56;;;;;;;;;;;18.00;51.10;;;17.14;52.36;101342.81;12124493;19;20508;-83
2023/09/02 01:56:58;;;;;;;;;;;17.90;51.10;;;17.11;52.45;101343.06;12145209;19;20668;-83
2023/09/02 02:01:00;;;;;;;;;;;17.90;51.10;;;17.07;52.18;101346.03;12144440;19;19958;-83
2023/09/02 02:05:05;;;;;;;;;;;17.90;51.10;;;17.10;52.52;101365.13;12145952;19;19929;-83
2023/09/02 02:09:14;;;;;;;;;;;17.80;51.00;;;17.02;52.50;101359.56;12144221;19;19923;-83
2023/09/02 02:13:16;;;;;;;;;;;17.80;51.00;;;16.98;52.51;101364.19;12141325;19;20271;-83
2023/09/02 02:17:17;;;;;;;;;;;17.70;51.00;;;16.93;52.41;101371.63;12146023;19;19929;-83
2023/09/02 02:21:21;;;;;;;;;;;17.70;51.00;;;16.89;52.48;101371.94;12143696;19;19930;-83
2023/09/02 02:25:22;;;;;;;;;;;17.70;51.10;;;16.89;52.51;101374.59;12145076;19;19938;-83
2023/09/02 02:29:24;;;;;;;;;;;17.60;51.10;;;16.79;52.54;101375.22;12142163;19;20711;-83
2023/09/02 02:33:26;;;;;;;;;;;17.60;51.10;;;16.83;52.55;101380.31;12141342;19;19925;-83
2023/09/02 02:37:28;;;;;;;;;;;17.50;51.10;;;16.76;52.46;101379.84;12144705;19;20741;-83
2023/09/02 02:41:30;;;;;;;;;;;17.50;51.00;;;16.65;52.71;101371.84;12145086;19;20397;-83
2023/09/02 02:45:32;;;;;;;;;;;17.50;51.10;;;16.71;52.61;101396.00;12144245;19;20198;-83
2023/09/02 02:49:33;;;;;;;;;;;17.50;51.10;;;16.66;52.56;101400.78;12142527;19;20295;-83
2023/09/02 02:53:36;;;;;;;;;;;17.40;51.00;;;16.52;52.62;101385.06;12141070;19;20195;-83
2023/09/02 02:57:39;;;;;;;;;;;17.40;51.00;;;16.50;52.55;101395.72;12143031;19;19933;-83
2023/09/02 03:01:43;;;;;;;;;;;17.30;50.90;;;16.46;52.53;101403.94;12142533;19;19927;-82
2023/09/02 03:05:45;;;;;;;;;;;17.20;50.90;;;16.41;52.48;101406.03;12142353;19;20739;-83
2023/09/02 03:09:47;;;;;;;;;;;17.20;51.00;;;16.38;52.41;101397.41;12142149;19;20251;-83
2023/09/02 03:13:49;;;;;;;;;;;17.10;51.10;;;16.30;52.66;101389.16;12141878;19;19931;-83
2023/09/02 03:17:55;;;;;;;;;;;17.10;51.40;;;16.30;52.65;101404.16;12141878;19;20996;-83
2023/09/02 03:21:59;;;;;;;;;;;17.10;51.10;;;16.27;52.71;101397.28;12139600;19;20187;-83
2023/09/02 03:26:11;;;;;;;;;;;17.00;51.10;;;16.26;52.79;101402.69;12141545;19;19922;-83
2023/09/02 03:30:15;;;;;;;;;;;17.00;51.10;;;16.18;52.73;101395.31;12139511;19;19914;-83
2023/09/02 03:34:17;;;;;;;;;;;17.00;51.20;;;16.19;52.59;101402.25;12144076;19;19919;-83
2023/09/02 03:38:18;;;;;;;;;;;17.00;51.20;;;16.20;52.77;101403.91;12140952;19;20387;-83
2023/09/02 03:42:20;;;;;;;;;;;17.00;51.20;;;16.18;52.90;101405.84;12141079;19;19918;-83
2023/09/02 03:46:24;;;;;;;;;;;17.00;51.20;;;16.14;52.82;101415.72;12141542;19;19923;-83
2023/09/02 03:50:26;;;;;;;;;;;17.00;51.10;;;16.08;52.91;101420.56;12141047;19;20377;-83
2023/09/02 03:54:29;;;;;;;;;;;16.90;51.10;;;16.04;52.85;101419.06;12140922;19;19923;-83
2023/09/02 03:58:31;;;;;;;;;;;16.90;51.10;;;16.01;52.77;101429.81;12137562;19;19927;-83
2023/09/02 04:02:32;;;;;;;;;;;16.80;51.10;;;15.96;52.97;101424.88;12137500;19;19918;-83
2023/09/02 04:06:34;;;;;;;;;;;16.80;51.10;;;15.96;52.81;101432.78;12139752;19;20282;-84
2023/09/02 04:10:36;;;;;;;;;;;16.80;51.10;;;15.92;52.80;101424.22;12137884;19;19911;-84
2023/09/02 04:14:37;;;;;;;;;;;16.70;51.00;;;15.88;52.86;101429.81;12139301;19;19929;-84
2023/09/02 04:18:39;;;;;;;;;;;16.70;51.00;;;15.80;52.69;101434.75;12138080;19;19932;-84
2023/09/02 04:22:40;;;;;;;;;;;16.60;51.00;;;15.72;52.91;101435.25;12138256;19;20179;-84
2023/09/02 04:26:42;;;;;;;;;;;16.60;50.90;;;15.58;52.85;101416.81;12134588;19;20028;-84
2023/09/02 04:30:44;;;;;;;;;;;16.50;50.90;;;15.62;52.90;101431.50;12133805;19;20172;-84
2023/09/02 04:34:47;;;;;;;;;;;16.50;50.90;;;15.54;52.74;101437.25;12137669;19;19960;-84
2023/09/02 04:38:51;;;;;;;;;;;16.40;50.90;;;15.46;53.00;101429.00;12138453;19;19922;-84
2023/09/02 04:42:55;;;;;;;;;;;16.40;51.00;;;15.53;52.94;101450.50;12135527;19;19919;-84
2023/09/02 04:46:59;;;;;;;;;;;16.30;51.10;;;15.41;52.71;101444.25;12140095;19;19930;-84
2023/09/02 04:51:03;;;;;;;;;;;16.30;51.20;;;15.49;52.90;101450.69;12136741;19;20175;-84
2023/09/02 04:55:05;;;;;;;;;;;16.30;51.50;;;15.51;52.92;101461.16;12137627;19;19919;-84
2023/09/02 04:59:06;;;;;;;;;;;16.30;51.20;;;15.43;53.30;101455.53;12136302;19;19922;-84
2023/09/02 05:03:09;;;;;;;;;;;16.30;51.30;;;15.46;53.12;101460.59;12136337;19;20034;-86
2023/09/02 05:07:11;;;;;;;;;;;16.30;51.30;;;15.46;53.13;101471.97;12137612;19;19923;-86
2023/09/02 05:11:12;;;;;;;;;;;16.30;51.30;;;15.47;53.09;101468.41;12138770;19;19933;-86
2023/09/02 05:15:14;;;;;;;;;;;16.30;51.30;;;15.48;53.27;101475.34;12137322;19;19941;-86
2023/09/02 05:19:16;;;;;;;;;;;16.30;51.40;;;15.45;53.07;101478.19;12136690;19;19940;-86
2023/09/02 05:23:18;;;;;;;;;;;16.30;51.40;;;15.52;53.06;101490.94;12134735;19;19923;-86
2023/09/02 05:27:21;;;;;;;;;;;16.30;51.50;;;15.47;53.09;101493.84;12137302;19;19937;-86
2023/09/02 05:31:22;;;;;;;;;;;16.30;51.40;;;15.39;53.22;101486.47;12147554;19;19919;-86
2023/09/02 05:35:24;;;;;;;;;;;16.30;51.40;;;15.42;53.10;101502.06;12147998;19;19939;-86
2023/09/02 05:39:26;;;;;;;;;;;16.30;51.40;;;15.38;53.13;101500.56;12148420;19;19923;-87
2023/09/02 05:43:28;;;;;;;;;;;16.30;51.40;;;15.34;53.12;101485.91;12146047;19;20693;-86
2023/09/02 05:47:30;;;;;;;;;;;16.30;51.50;;;15.45;53.29;101507.13;12146800;19;19915;-86
2023/09/02 05:51:32;;;;;;;;;;;16.40;51.70;;;15.54;53.27;101515.38;12149691;19;19930;-87
2023/09/02 05:55:34;;;;;;;;;;;16.40;51.80;;;15.57;53.51;101520.44;12155919;19;20773;-87
2023/09/02 06:00:23;;;;;;;;;;;16.50;51.90;;;15.59;53.57;101524.69;12156037;19;20030;-84
2023/09/02 06:04:31;;;;;;;;;;;16.50;52.00;;;15.71;53.54;101533.59;12147948;19;20144;-84
2023/09/02 06:08:33;;;;;;;;;;;16.60;52.20;;;15.75;53.60;101540.38;12149702;19;19934;-84
2023/09/02 06:12:34;;;;;;;;;;;16.70;52.40;;;15.82;53.79;101540.81;12142351;19;19915;-85
2023/09/02 06:16:36;;;;;;;;;;;16.80;52.50;;;15.93;53.74;101555.00;12149656;19;20618;-83
2023/09/02 06:20:37;;;;;;;;;;;16.90;52.70;;;15.97;53.74;101539.84;12146655;19;20289;-84
2023/09/02 06:24:39;;;;;;;;;;;17.00;52.80;;;16.02;54.02;101539.56;12158929;19;19951;-83
2023/09/02 06:28:40;;;;;;;;;;;17.10;52.90;;;16.16;53.95;101539.50;12147190;19;19936;-83
2023/09/02 06:32:42;;;;;;;;;;;17.20;53.10;;;16.01;53.98;101499.16;12149484;19;19922;-83
2023/09/02 06:36:44;;;;;;;;;;;17.30;53.30;;;16.37;53.92;101545.13;12151899;19;20750;-85
2023/09/02 06:40:46;;;;;;;;;;;17.50;53.50;;;16.43;54.12;101533.34;12146565;19;19954;-85
2023/09/02 06:44:52;;;;;;;;;;;17.60;53.60;;;16.66;53.99;101564.28;12142604;19;19927;-84
2023/09/02 06:48:54;;;;;;;;;;;17.70;53.70;;;16.78;53.96;101566.09;12143887;19;19923;-85
2023/09/02 06:52:55;;;;;;;;;;;17.80;53.80;;;16.81;54.23;101551.88;12140979;19;19919;-83
2023/09/02 06:56:57;;;;;;;;;;;18.00;53.70;;;17.02;54.18;101576.78;12144094;19;19919;-86
2023/09/02 07:00:59;;;;;;;;;;;18.10;53.80;;;17.13;54.38;101578.69;12141890;19;20839;-87
2023/09/02 07:05:01;;;;;;;;;;;18.20;53.70;;;17.09;54.19;101549.97;12148374;19;20366;-87
2023/09/02 07:09:02;;;;;;;;;;;18.40;53.90;;;17.40;54.69;101580.34;12144919;19;20306;-86
2023/09/02 07:13:04;;;;;;;;;;;18.50;53.80;;;17.50;54.44;101580.53;12143448;19;19967;-86
2023/09/02 07:17:05;;;;;;;;;;;18.70;53.80;;;17.55;54.45;101574.00;12145454;19;20227;-86
2023/09/02 07:21:07;;;;;;;;;;;18.80;53.90;;;17.59;54.31;101567.53;12141560;19;20703;-86
2023/09/02 07:25:09;;;;;;;;;;;18.90;53.80;;;17.89;54.40;101598.03;12145357;19;19930;-85
2023/09/02 07:29:11;;;;;;;;;;;19.00;53.70;;;18.01;54.38;101596.28;12144157;19;19969;-85
2023/09/02 07:33:16;;;;;;;;;;;19.10;53.60;;;18.12;54.54;101599.84;12137357;19;20206;-88
2023/09/02 07:37:18;;;;;;;;;;;19.30;53.50;;;18.27;54.72;101613.72;12144664;19;20305;-87
2023/09/02 07:41:20;;;;;;;;;;;19.40;53.50;;;18.38;54.85;101607.66;12136504;19;19934;-86
2023/09/02 07:45:21;;;;;;;;;;;19.60;53.60;;;18.56;54.99;101611.56;12143012;19;20010;-87
2023/09/02 07:49:22;;;;;;;;;;;19.80;53.70;;;18.76;54.89;101615.38;12138037;19;20461;-86
2023/09/02 07:53:24;;;;;;;;;;;19.90;53.60;;;18.92;54.99;101616.88;12136804;19;19922;-88
2023/09/02 07:57:25;;;;;;;;;;;20.20;53.50;;;19.18;54.76;101631.63;12138423;19;19922;-87
2023/09/02 08:01:27;;;;;;;;;;;20.30;53.70;;;19.38;54.96;101626.56;12137863;19;20251;-87
2023/09/02 08:05:28;;;;;;;;;;;20.60;53.60;;;19.51;54.99;101615.84;12139981;19;19931;-88
2023/09/02 08:09:30;;;;;;;;;;;20.80;53.50;;;19.77;54.71;101619.13;12134613;19;20731;-87
2023/09/02 08:13:32;;;;;;;;;;;21.00;53.80;;;20.05;55.01;101631.84;12132959;19;20267;-86
2023/09/02 08:17:37;;;;;;;;;;;21.30;53.60;;;20.17;55.05;101632.69;12141362;19;19942;-86
2023/09/02 08:21:38;;;;;;;;;;;21.50;53.40;;;20.36;54.76;101634.66;12137193;19;20032;-86
2023/09/02 08:25:40;;;;;;;;;;;21.70;53.00;;;20.41;55.29;101626.31;12130273;19;20352;-87
2023/09/02 08:29:41;;;;;;;;;;;21.90;52.70;;;20.75;55.03;101653.59;12129042;19;19930;-86
2023/09/02 08:33:42;;;;;;;;;;;22.10;52.70;;;20.85;54.76;101643.03;12134239;19;20399;-85
2023/09/02 08:37:44;;;;;;;;;;;22.20;52.50;;;21.10;54.80;101655.91;12130928;19;19922;-86
2023/09/02 08:41:48;;;;;;;;;;;22.40;52.30;;;21.27;55.02;101651.81;12127246;19;19923;-86
2023/09/02 08:45:51;;;;;;;;;;;22.60;52.20;;;21.50;55.02;101663.16;12131896;19;20313;-86
2023/09/02 08:49:53;;;;;;;;;;;22.80;52.30;;;21.64;55.06;101662.78;12133959;19;19943;-86
2023/09/02 08:53:56;;;;;;;;;;;22.90;52.10;;;21.80;55.11;101662.28;12133781;19;19937;-87
2023/09/02 08:57:59;;;;;;;;;;;23.10;52.10;;;21.95;54.76;101668.06;12133375;19;20272;-88
2023/09/02 09:02:01;;;;;;;;;;;23.30;51.90;;;22.10;55.07;101655.22;12129896;19;20341;-86
2023/09/02 09:06:04;;;;;;;;;;;23.50;51.80;;;22.24;54.95;101664.66;12135097;19;19934;-86
2023/09/02 09:10:08;;;;;;;;;;;23.60;51.10;;;22.48;54.71;101674.94;12129707;19;20314;-85
2023/09/02 09:14:22;;;;;;;;;;;23.80;51.20;;;22.66;54.36;101683.06;12134523;19;19914;-86
2023/09/02 09:18:24;;;;;;;;;;;23.90;51.40;;;22.60;54.63;101647.19;12130853;19;20688;-85
2023/09/02 09:22:27;;;;;;;;;;;23.90;51.10;;;22.85;54.64;101672.41;12130785;19;21097;-86
2023/09/02 09:26:30;;;;;;;;;;;24.20;51.20;;;23.01;54.59;101676.31;12127550;19;19929;-86
2023/09/02 09:30:32;;;;;;;;;;;24.30;51.10;;;23.16;54.63;101666.91;12127827;19;19927;-85
2023/09/02 09:34:38;;;;;;;;;;;24.50;50.00;;;23.28;54.56;101679.09;12128991;19;19939;-86
2023/09/02 09:38:39;;;;;;;;;;;24.60;50.60;;;23.42;54.27;101678.63;12131641;19;20722;-87
2023/09/02 09:42:41;;;;;;;;;;;24.70;50.50;;;23.60;54.33;101680.50;12130148;19;20376;-86
2023/09/02 09:46:42;;;;;;;;;;;24.90;50.30;;;23.73;54.21;101694.38;12126770;19;19919;-86
2023/09/02 09:50:44;;;;;;;;;;;25.00;50.70;;;23.84;54.41;101683.53;12127582;19;20265;-87
2023/09/02 09:54:55;;;;;;;;;;;25.10;50.60;;;23.93;53.98;101686.31;12126222;19;19934;-87
2023/09/02 09:59:05;;;;;;;;;;;25.20;50.60;;;24.05;54.19;101687.78;12133221;19;19918;-86
2023/09/02 10:03:08;;;;;;;;;;;25.30;50.70;;;24.04;54.01;101672.75;12129235;19;19918;-86
2023/09/02 10:07:16;;;;;;;;;;;25.40;50.20;;;24.21;53.93;101687.13;12131762;19;19927;-86
2023/09/02 10:11:24;;;;;;;;;;;25.40;47.90;;;24.21;53.85;101679.09;12127419;19;19927;-87
2023/09/02 10:15:27;;;;;;;;;;;25.50;48.50;;;24.30;53.57;101675.53;12136059;19;19919;-85
2023/09/02 10:19:29;;;;;;;;;;;25.60;48.60;;;24.35;53.51;101683.09;12138950;19;19934;-85
2023/09/02 10:23:32;;;;;;;;;;;25.60;49.10;;;24.33;53.65;101680.59;12139058;19;19930;-86
2023/09/02 10:27:38;;;;;;;;;;;25.60;49.70;;;24.37;53.13;101675.78;12144740;19;19922;-86
2023/09/02 10:31:42;;;;;;;;;;;25.70;49.70;;;24.49;53.12;101694.13;12142675;19;20303;-87
2023/09/02 10:35:47;;;;;;;;;;;25.70;49.10;;;24.51;52.88;101700.13;12144905;19;20470;-86
2023/09/02 10:39:53;;;;;;;;;;;25.70;49.30;;;24.50;53.34;101698.47;12147640;19;20404;-85
2023/09/02 10:43:55;;;;;;;;;;;25.60;49.70;;;24.27;52.95;101657.13;12144444;19;19942;-86
2023/09/02 10:47:57;;;;;;;;;;;25.60;49.70;;;24.49;52.86;101698.59;12146056;19;19931;-86
2023/09/02 10:52:00;;;;;;;;;;;25.60;49.70;;;24.40;52.81;101676.28;12143980;19;19934;-86
2023/09/02 10:56:02;;;;;;;;;;;25.60;49.80;;;24.54;52.93;101699.00;12143423;19;20330;-86
2023/09/02 11:00:26;;;;;;;;;;;25.60;49.80;;;24.49;52.94;101685.25;12145933;19;19927;-85
2023/09/02 11:04:59;;;;;;;;;;;25.60;50.00;;;24.56;52.53;101705.03;12129097;19;19926;-86
2023/09/02 11:09:00;;;;;;;;;;;25.50;49.90;;;24.53;52.87;101705.34;12131123;19;19942;-87
2023/09/02 11:13:06;;;;;;;;;;;25.50;49.90;;;24.51;52.34;101705.47;12142404;19;19922;-86
2023/09/02 11:17:28;;;;;;;;;;;25.60;50.00;;;24.53;52.33;101707.16;12144374;19;19923;-86
2023/09/02 11:21:40;;;;;;;;;;;25.50;50.00;;;24.47;52.35;101700.63;12136681;19;19926;-86
2023/09/02 11:25:42;;;;;;;;;;;25.50;50.00;;;24.53;52.32;101718.69;12124587;19;19915;-87
2023/09/02 11:29:44;;;;;;;;;;;25.40;49.90;;;24.46;52.26;101701.59;12122526;19;19919;-86
2023/09/02 11:33:47;;;;;;;;;;;25.50;50.00;;;24.51;52.23;101718.00;12134506;19;19926;-86
2023/09/02 11:37:48;;;;;;;;;;;25.50;49.80;;;24.47;51.88;101714.78;12140964;19;19939;-85
2023/09/02 11:42:06;;;;;;;;;;;25.50;49.80;;;24.40;52.40;101703.00;12123805;19;19925;-86
2023/09/02 11:46:08;;;;;;;;;;;25.40;49.80;;;24.48;51.99;101726.31;12130236;19;19941;-86
2023/09/02 11:50:23;;;;;;;;;;;25.40;49.70;;;24.31;51.88;101697.75;12119323;19;19923;-86
2023/09/02 11:54:24;;;;;;;;;;;25.40;49.50;;;24.32;51.86;101700.25;12129027;19;19930;-87
2023/09/02 11:58:25;;;;;;;;;;;25.40;49.80;;;24.46;52.21;101730.97;12125728;19;19923;-86
2023/09/02 12:02:27;;;;;;;;;;;25.40;49.80;;;24.45;52.29;101723.94;12124301;19;19934;-86
2023/09/02 12:06:30;;;;;;;;;;;25.40;49.80;;;24.44;51.55;101732.97;12127748;19;19930;-86
2023/09/02 12:10:31;;;;;;;;;;;25.40;49.80;;;24.40;52.18;101721.69;12127064;19;19945;-84
2023/09/02 12:14:35;;;;;;;;;;;25.40;49.80;;;24.46;52.00;101725.63;12122601;19;19953;-84
2023/09/02 12:18:36;;;;;;;;;;;25.40;49.80;;;24.58;51.87;101737.78;12119929;19;19981;-85
2023/09/02 12:22:39;;;;;;;;;;;25.40;49.90;;;24.62;51.86;101736.47;12125046;19;19927;-84
2023/09/02 12:26:50;;;;;;;;;;;25.50;49.90;;;24.68;51.78;101733.19;12121445;19;20987;-84
2023/09/02 12:30:52;;;;;;;;;;;25.50;49.70;;;24.66;51.86;101719.16;12124949;19;19923;-85
2023/09/02 12:34:54;;;;;;;;;;;25.60;49.70;;;24.68;51.93;101733.19;12120372;19;19926;-85
2023/09/02 12:38:56;;;;;;;;;;;25.50;49.40;;;24.64;51.66;101721.13;12116801;19;19922;-84
2023/09/02 12:42:58;;;;;;;;;;;25.60;49.30;;;24.66;51.43;101729.84;12114298;19;19934;-84
2023/09/02 12:47:00;;;;;;;;;;;25.60;49.60;;;24.55;51.67;101721.19;12118446;19;20180;-84
2023/09/02 12:51:02;;;;;;;;;;;25.60;49.50;;;24.67;51.25;101730.66;12114959;19;20357;-84
2023/09/02 12:55:05;;;;;;;;;;;25.50;49.70;;;24.23;51.47;101672.63;12121558;19;19939;-84
2023/09/02 12:59:07;;;;;;;;;;;25.50;49.30;;;24.61;51.46;101742.81;12125645;19;19915;-87
2023/09/02 13:03:08;;;;;;;;;;;25.40;49.40;;;24.52;51.17;101727.72;12119561;19;19930;-84
2023/09/02 13:07:10;;;;;;;;;;;25.40;49.30;;;24.56;51.55;101738.91;12123040;19;20753;-84
2023/09/02 13:11:11;;;;;;;;;;;25.20;49.20;;;24.48;51.58;101742.34;12121511;19;19929;-84
2023/09/02 13:15:13;;;;;;;;;;;25.30;49.40;;;24.36;51.33;101719.47;12120523;19;19933;-84
2023/09/02 13:19:15;;;;;;;;;;;25.30;49.50;;;24.43;51.29;101734.75;12122797;19;20271;-84
2023/09/02 13:23:16;;;;;;;;;;;25.30;49.40;;;24.47;51.42;101730.81;12112463;19;19946;-84
2023/09/02 13:27:19;;;;;;;;;;;25.30;49.50;;;24.45;51.32;101726.63;12122477;19;20716;-84
2023/09/02 13:31:22;;;;;;;;;;;25.30;49.50;;;24.50;51.24;101735.84;12115146;19;19922;-84
2023/09/02 13:35:23;;;;;;;;;;;25.30;49.60;;;24.29;51.15;101706.72;12119910;19;19929;-84
2023/09/02 13:39:25;;;;;;;;;;;25.30;49.50;;;24.25;51.07;101694.69;12116166;19;20327;-84
2023/09/02 13:43:26;;;;;;;;;;;25.30;49.60;;;24.48;51.50;101734.31;12117736;19;19942;-84
2023/09/02 13:47:28;;;;;;;;;;;25.30;49.60;;;24.55;51.42;101747.91;12122656;19;20694;-84
2023/09/02 13:51:29;;;;;;;;;;;25.30;49.60;;;24.47;51.32;101743.34;12132622;19;19923;-84
2023/09/02 13:55:43;;;;;;;;;;;25.30;49.50;;;24.47;50.95;101749.50;12129368;19;19923;-85
2023/09/02 13:59:44;;;;;;;;;;;25.30;49.30;;;24.19;51.13;101699.75;12131470;19;20267;-84
2023/09/02 14:03:47;;;;;;;;;;;25.20;49.30;;;24.45;51.24;101742.63;12126936;19;19934;-84
2023/09/02 14:07:49;;;;;;;;;;;25.20;49.30;;;24.42;50.76;101740.25;12133821;19;20011;-84
2023/09/02 14:11:50;;;;;;;;;;;25.20;49.40;;;24.41;50.85;101741.22;12135499;19;20741;-84
2023/09/02 14:15:52;;;;;;;;;;;25.10;49.10;;;24.37;50.88;101738.03;12143661;19;20772;-84
2023/09/02 14:19:53;;;;;;;;;;;25.10;49.20;;;24.37;51.23;101739.84;12138005;19;20343;-84
2023/09/02 14:23:55;;;;;;;;;;;25.10;49.10;;;24.27;50.98;101735.41;12139417;19;19950;-84
2023/09/02 14:27:56;;;;;;;;;;;25.10;49.30;;;24.17;51.14;101713.28;12135653;19;19915;-84
2023/09/02 14:31:58;;;;;;;;;;;25.10;49.40;;;24.39;50.97;101743.22;12133722;19;20331;-84
2023/09/02 14:36:00;;;;;;;;;;;25.10;49.40;;;24.38;50.74;101738.84;12141285;19;19930;-84
2023/09/02 14:40:02;;;;;;;;;;;25.10;49.80;;;24.28;51.33;101733.59;12134364;19;20323;-84
2023/09/02 14:44:03;;;;;;;;;;;25.10;49.40;;;24.41;51.04;101742.09;12136013;19;19923;-86
2023/09/02 14:48:04;;;;;;;;;;;25.10;49.50;;;24.31;51.11;101727.13;12137099;19;19914;-87
2023/09/02 14:52:06;;;;;;;;;;;25.20;49.50;;;24.21;50.91;101709.31;12127810;19;20240;-87
2023/09/02 14:56:07;;;;;;;;;;;25.20;49.50;;;24.42;50.88;101735.75;12127049;19;20279;-87
2023/09/02 15:00:11;;;;;;;;;;;25.20;49.40;;;24.46;50.70;101747.81;12127670;19;19928;-87
2023/09/02 15:04:15;;;;;;;;;;;25.20;49.40;;;24.51;50.79;101755.38;12128566;19;20252;-87
2023/09/02 15:08:17;;;;;;;;;;;25.20;49.40;;;24.50;50.69;101751.03;12129765;19;19946;-87
2023/09/02 15:12:18;;;;;;;;;;;25.30;49.40;;;24.50;50.99;101754.56;12127843;19;20758;-87
2023/09/02 15:16:20;;;;;;;;;;;25.20;49.30;;;24.51;50.95;101744.69;12130353;19;20730;-87
2023/09/02 15:20:28;;;;;;;;;;;25.30;49.40;;;24.46;50.56;101744.31;12134364;19;19934;-87
2023/09/02 15:24:31;;;;;;;;;;;25.30;49.30;;;24.56;50.49;101758.44;12134811;19;20846;-87
2023/09/02 15:28:33;;;;;;;;;;;25.30;49.20;;;24.47;50.51;101748.69;12134323;19;19926;-87
2023/09/02 15:32:34;;;;;;;;;;;25.30;49.20;;;24.52;50.93;101765.09;12131291;19;19943;-87
2023/09/02 15:36:36;;;;;;;;;;;25.20;49.20;;;24.48;50.96;101758.34;12137588;19;19918;-87
2023/09/02 15:40:38;;;;;;;;;;;25.20;49.20;;;24.38;50.87;101741.53;12129605;19;19934;-87
2023/09/02 15:44:43;;;;;;;;;;;25.20;49.20;;;24.47;50.41;101770.88;12131023;19;19934;-87
2023/09/02 15:48:45;;;;;;;;;;;25.20;49.20;;;24.42;50.58;101761.59;12132394;19;21008;-87
2023/09/02 15:52:50;;;;;;;;;;;25.20;49.20;;;24.26;50.75;101740.91;12144244;19;20251;-87
2023/09/02 15:56:52;;;;;;;;;;;25.20;49.30;;;24.24;50.41;101730.34;12153007;19;20700;-87
2023/09/02 16:01:34;;;;;;;;;;;25.10;49.30;;;24.40;50.53;101763.59;12151781;19;19919;-87
2023/09/02 16:05:40;;;;;;;;;;;25.20;49.30;;;24.24;50.56;101730.34;11985705;19;19927;-87
2023/09/02 16:09:44;;;;;;;;;;;25.20;49.30;;;24.45;50.41;101766.69;12212587;19;19926;-87
2023/09/02 16:23:48;;;;;;;;;;;25.20;49.20;;;24.40;50.31;101756.41;12119823;19;19919;-87
2023/09/02 16:27:54;;;;;;;;;;;25.20;49.20;;;24.49;50.33;101773.38;12134598;19;22326;-87
2023/09/02 16:32:02;;;;;;;;;;;25.20;49.30;;;24.51;50.63;101780.25;12145427;19;19922;-87
2023/09/02 16:36:03;;;;;;;;;;;25.20;49.30;;;24.32;50.30;101750.97;12127621;19;19927;-87
2023/09/02 16:40:51;;;;;;;;;;;25.20;49.30;;;24.06;50.69;101705.44;12145608;19;19926;-87
2023/09/02 16:45:39;;;;;;;;;;;25.20;49.30;;;24.29;50.28;101744.09;12215119;19;19923;-88
2023/09/02 16:49:42;;;;;;;;;;;25.30;49.40;;;24.43;50.23;101764.09;12122190;19;19927;-87
2023/09/02 16:53:44;;;;;;;;;;;25.20;49.40;;;24.48;50.20;101775.22;12122518;19;19974;-88
2023/09/02 16:57:47;;;;;;;;;;;25.20;49.30;;;24.41;50.43;101774.13;12128284;19;19926;-88
2023/09/02 17:01:50;;;;;;;;;;;25.20;49.30;;;24.43;50.35;101768.63;12133493;19;20005;-88
2023/09/02 17:05:51;;;;;;;;;;;25.20;49.40;;;24.39;50.70;101765.41;12132845;19;19994;-88
2023/09/02 17:09:52;;;;;;;;;;;25.20;49.40;;;24.45;50.46;101780.84;12133409;19;19929;-88
2023/09/02 17:13:56;;;;;;;;;;;25.20;49.30;;;24.19;50.39;101737.97;12127649;19;19919;-88
2023/09/02 17:17:58;;;;;;;;;;;25.20;49.50;;;24.04;50.59;101721.63;12123809;19;19923;-87
2023/09/02 17:22:01;;;;;;;;;;;25.20;49.60;;;24.48;50.35;101801.09;12124740;19;19925;-87
2023/09/02 17:26:03;;;;;;;;;;;25.20;49.50;;;24.46;50.51;101798.56;12132706;19;19974;-88
2023/09/02 17:30:07;;;;;;;;;;;25.20;49.50;;;24.41;50.30;101794.63;12141831;19;19922;-88
2023/09/02 17:34:10;;;;;;;;;;;25.10;49.50;;;24.26;50.32;101776.44;12143610;19;19915;-88
2023/09/02 17:38:12;;;;;;;;;;;25.10;49.60;;;24.24;50.37;101785.59;12136089;19;20666;-88
2023/09/02 17:42:16;;;;;;;;;;;25.10;49.70;;;24.33;50.59;101814.09;12148375;19;20768;-88
2023/09/02 17:46:18;;;;;;;;;;;25.10;49.80;;;24.25;50.59;101809.47;12143943;19;20801;-87
2023/09/02 17:50:20;;;;;;;;;;;25.00;49.80;;;24.19;50.19;101806.53;12141557;19;19927;-86
2023/09/02 17:54:22;;;;;;;;;;;25.00;49.80;;;24.20;50.55;101814.41;12138441;19;19927;-86
2023/09/02 17:58:26;;;;;;;;;;;24.90;49.90;;;23.96;50.41;101790.91;12137490;19;20404;-85
2023/09/02 18:02:28;;;;;;;;;;;24.80;49.90;;;23.99;50.39;101808.47;12140794;19;19923;-85
2023/09/02 18:06:29;;;;;;;;;;;24.70;49.90;;;24.00;50.56;101826.97;12148460;19;19922;-85
2023/09/02 18:10:31;;;;;;;;;;;24.70;49.90;;;23.90;50.51;101828.00;12144341;19;19957;-86
2023/09/02 18:14:32;;;;;;;;;;;24.60;49.80;;;23.71;50.04;101807.50;12144503;19;19939;-86
2023/09/02 18:18:34;;;;;;;;;;;24.50;49.80;;;23.63;50.32;101816.25;12148299;19;19919;-86
2023/09/02 18:22:35;;;;;;;;;;;24.40;49.70;;;23.59;50.48;101826.34;12146950;19;20017;-86
2023/09/02 18:26:36;;;;;;;;;;;24.30;49.80;;;23.29;50.42;101795.38;12134908;19;19923;-84